sensor_id;sensor_type;location;lat;lon;timestamp;P1;durP1;ratioP1;P2;durP2;ratioP2
81382;SDS011;70834;37.534;-122.308;2024-03-06T00:00:14;0.90;;;0.20;;
81382;SDS011;70834;37.534;-122.308;2024-03-06T00:02:36;1.70;;;0.30;;
81382;SDS011;70834;37.534;-122.308;2024-03-06T00:04:57;2.05;;;0.82;;
81382;SDS011;70834;37.534;-122.308;2024-03-06T00:07:19;2.05;;;0.38;;
81382;SDS011;70834;37.534;-122.308;2024-03-06T00:09:40;0.68;;;0.10;;
81382;SDS011;70834;37.534;-122.308;2024-03-06T00:12:02;0.45;;;0.20;;
81382;SDS011;70834;37.534;-122.308;2024-03-06T00:14:24;1.08;;;0.22;;
81382;SDS011;70834;37.534;-122.308;2024-03-06T00:16:45;0.63;;;0.25;;
81382;SDS011;70834;37.534;-122.308;2024-03-06T00:19:07;1.33;;;0.40;;
81382;SDS011;70834;37.534;-122.308;2024-03-06T00:21:29;0.80;;;0.35;;
81382;SDS011;70834;37.534;-122.308;2024-03-06T00:23:51;1.50;;;0.35;;
81382;SDS011;70834;37.534;-122.308;2024-03-06T00:26:12;0.43;;;0.10;;
81382;SDS011;70834;37.534;-122.308;2024-03-06T00:28:33;0.20;;;0.20;;
81382;SDS011;70834;37.534;-122.308;2024-03-06T00:30:55;1.88;;;0.13;;
81382;SDS011;70834;37.534;-122.308;2024-03-06T00:33:16;1.75;;;0.20;;
81382;SDS011;70834;37.534;-122.308;2024-03-06T00:35:38;0.65;;;0.22;;
81382;SDS011;70834;37.534;-122.308;2024-03-06T00:37:59;3.35;;;0.50;;
81382;SDS011;70834;37.534;-122.308;2024-03-06T00:40:23;0.95;;;0.20;;
81382;SDS011;70834;37.534;-122.308;2024-03-06T00:42:45;1.17;;;0.22;;
81382;SDS011;70834;37.534;-122.308;2024-03-06T00:45:06;0.57;;;0.20;;
81382;SDS011;70834;37.534;-122.308;2024-03-06T00:47:28;0.80;;;0.30;;
81382;SDS011;70834;37.534;-122.308;2024-03-06T00:49:49;0.77;;;0.40;;
81382;SDS011;70834;37.534;-122.308;2024-03-06T00:52:10;1.88;;;0.30;;
81382;SDS011;70834;37.534;-122.308;2024-03-06T00:54:32;1.98;;;0.65;;
81382;SDS011;70834;37.534;-122.308;2024-03-06T00:56:56;1.52;;;0.35;;
81382;SDS011;70834;37.534;-122.308;2024-03-06T00:59:18;0.68;;;0.20;;
81382;SDS011;70834;37.534;-122.308;2024-03-06T01:01:39;0.63;;;0.28;;
81382;SDS011;70834;37.534;-122.308;2024-03-06T01:04:01;1.13;;;0.35;;
81382;SDS011;70834;37.534;-122.308;2024-03-06T01:06:23;0.40;;;0.30;;
81382;SDS011;70834;37.534;-122.308;2024-03-06T01:08:44;1.50;;;0.28;;
81382;SDS011;70834;37.534;-122.308;2024-03-06T01:11:05;1.45;;;0.40;;
81382;SDS011;70834;37.534;-122.308;2024-03-06T01:13:27;0.77;;;0.47;;
81382;SDS011;70834;37.534;-122.308;2024-03-06T01:15:48;1.42;;;0.50;;
81382;SDS011;70834;37.534;-122.308;2024-03-06T01:18:10;3.60;;;0.65;;
81382;SDS011;70834;37.534;-122.308;2024-03-06T01:20:31;3.55;;;0.90;;
81382;SDS011;70834;37.534;-122.308;2024-03-06T01:22:53;1.25;;;0.40;;
81382;SDS011;70834;37.534;-122.308;2024-03-06T01:25:14;1.52;;;0.43;;
81382;SDS011;70834;37.534;-122.308;2024-03-06T01:27:36;1.52;;;0.70;;
81382;SDS011;70834;37.534;-122.308;2024-03-06T01:29:57;0.98;;;0.40;;
81382;SDS011;70834;37.534;-122.308;2024-03-06T01:32:19;1.25;;;0.50;;
81382;SDS011;70834;37.534;-122.308;2024-03-06T01:34:40;1.30;;;0.50;;
81382;SDS011;70834;37.534;-122.308;2024-03-06T01:37:02;2.67;;;0.68;;
81382;SDS011;70834;37.534;-122.308;2024-03-06T01:39:23;2.47;;;0.60;;
81382;SDS011;70834;37.534;-122.308;2024-03-06T01:41:48;1.05;;;0.43;;
81382;SDS011;70834;37.534;-122.308;2024-03-06T01:44:10;1.30;;;0.57;;
81382;SDS011;70834;37.534;-122.308;2024-03-06T01:46:33;0.88;;;0.55;;
81382;SDS011;70834;37.534;-122.308;2024-03-06T01:48:54;2.13;;;1.08;;
81382;SDS011;70834;37.534;-122.308;2024-03-06T01:51:17;1.65;;;0.98;;
81382;SDS011;70834;37.534;-122.308;2024-03-06T01:53:38;2.00;;;0.85;;
81382;SDS011;70834;37.534;-122.308;2024-03-06T01:56:00;2.05;;;0.95;;
81382;SDS011;70834;37.534;-122.308;2024-03-06T01:58:24;1.85;;;1.00;;
81382;SDS011;70834;37.534;-122.308;2024-03-06T02:00:45;1.63;;;0.77;;
81382;SDS011;70834;37.534;-122.308;2024-03-06T02:03:08;2.10;;;0.63;;
81382;SDS011;70834;37.534;-122.308;2024-03-06T02:05:29;0.85;;;0.30;;
81382;SDS011;70834;37.534;-122.308;2024-03-06T02:07:51;2.97;;;0.50;;
81382;SDS011;70834;37.534;-122.308;2024-03-06T02:10:14;0.80;;;0.40;;
81382;SDS011;70834;37.534;-122.308;2024-03-06T02:12:36;1.13;;;0.60;;
81382;SDS011;70834;37.534;-122.308;2024-03-06T02:14:58;1.33;;;0.70;;
81382;SDS011;70834;37.534;-122.308;2024-03-06T02:17:19;4.10;;;0.93;;
81382;SDS011;70834;37.534;-122.308;2024-03-06T02:19:42;1.55;;;0.75;;
81382;SDS011;70834;37.534;-122.308;2024-03-06T02:22:06;1.10;;;0.60;;
81382;SDS011;70834;37.534;-122.308;2024-03-06T02:24:28;2.92;;;0.90;;
81382;SDS011;70834;37.534;-122.308;2024-03-06T02:26:50;1.80;;;0.60;;
81382;SDS011;70834;37.534;-122.308;2024-03-06T02:29:12;1.85;;;0.50;;
81382;SDS011;70834;37.534;-122.308;2024-03-06T02:31:34;1.85;;;0.55;;
81382;SDS011;70834;37.534;-122.308;2024-03-06T02:33:56;1.00;;;0.50;;
81382;SDS011;70834;37.534;-122.308;2024-03-06T02:36:19;1.25;;;0.50;;
81382;SDS011;70834;37.534;-122.308;2024-03-06T02:38:40;2.90;;;0.90;;
81382;SDS011;70834;37.534;-122.308;2024-03-06T02:41:02;1.50;;;0.93;;
81382;SDS011;70834;37.534;-122.308;2024-03-06T02:43:23;2.25;;;0.85;;
81382;SDS011;70834;37.534;-122.308;2024-03-06T02:45:45;1.88;;;0.80;;
81382;SDS011;70834;37.534;-122.308;2024-03-06T02:48:06;2.70;;;0.88;;
81382;SDS011;70834;37.534;-122.308;2024-03-06T02:50:28;4.28;;;1.10;;
81382;SDS011;70834;37.534;-122.308;2024-03-06T02:52:49;4.78;;;0.93;;
81382;SDS011;70834;37.534;-122.308;2024-03-06T02:55:12;1.92;;;0.80;;
81382;SDS011;70834;37.534;-122.308;2024-03-06T02:57:33;1.27;;;0.65;;
81382;SDS011;70834;37.534;-122.308;2024-03-06T02:59:55;2.45;;;0.70;;
81382;SDS011;70834;37.534;-122.308;2024-03-06T03:02:17;1.90;;;0.75;;
81382;SDS011;70834;37.534;-122.308;2024-03-06T03:04:39;6.20;;;0.80;;
81382;SDS011;70834;37.534;-122.308;2024-03-06T03:07:00;1.95;;;0.60;;
81382;SDS011;70834;37.534;-122.308;2024-03-06T03:09:21;5.25;;;0.70;;
81382;SDS011;70834;37.534;-122.308;2024-03-06T03:11:43;0.82;;;0.60;;
81382;SDS011;70834;37.534;-122.308;2024-03-06T03:14:05;4.05;;;0.80;;
81382;SDS011;70834;37.534;-122.308;2024-03-06T03:16:27;1.10;;;0.60;;
81382;SDS011;70834;37.534;-122.308;2024-03-06T03:18:48;0.75;;;0.60;;
81382;SDS011;70834;37.534;-122.308;2024-03-06T03:21:09;2.78;;;0.90;;
81382;SDS011;70834;37.534;-122.308;2024-03-06T03:23:32;0.85;;;0.70;;
81382;SDS011;70834;37.534;-122.308;2024-03-06T03:25:53;4.40;;;0.73;;
81382;SDS011;70834;37.534;-122.308;2024-03-06T03:28:15;3.22;;;1.25;;
81382;SDS011;70834;37.534;-122.308;2024-03-06T03:30:36;1.40;;;0.80;;
81382;SDS011;70834;37.534;-122.308;2024-03-06T03:32:58;3.25;;;1.00;;
81382;SDS011;70834;37.534;-122.308;2024-03-06T03:35:19;1.10;;;0.80;;
81382;SDS011;70834;37.534;-122.308;2024-03-06T03:37:45;1.95;;;0.90;;
81382;SDS011;70834;37.534;-122.308;2024-03-06T03:40:06;5.03;;;2.15;;
81382;SDS011;70834;37.534;-122.308;2024-03-06T03:42:31;1.92;;;1.10;;
81382;SDS011;70834;37.534;-122.308;2024-03-06T03:44:53;4.15;;;1.10;;
81382;SDS011;70834;37.534;-122.308;2024-03-06T03:47:14;3.35;;;1.33;;
81382;SDS011;70834;37.534;-122.308;2024-03-06T03:49:36;1.60;;;0.73;;
81382;SDS011;70834;37.534;-122.308;2024-03-06T03:51:57;2.92;;;0.75;;
81382;SDS011;70834;37.534;-122.308;2024-03-06T03:54:18;2.22;;;0.80;;
81382;SDS011;70834;37.534;-122.308;2024-03-06T03:56:40;4.75;;;0.60;;
81382;SDS011;70834;37.534;-122.308;2024-03-06T03:59:01;1.80;;;0.70;;
81382;SDS011;70834;37.534;-122.308;2024-03-06T04:01:23;2.78;;;1.10;;
81382;SDS011;70834;37.534;-122.308;2024-03-06T04:03:46;3.42;;;0.63;;
81382;SDS011;70834;37.534;-122.308;2024-03-06T04:06:08;3.17;;;1.00;;
81382;SDS011;70834;37.534;-122.308;2024-03-06T04:08:30;3.78;;;0.77;;
81382;SDS011;70834;37.534;-122.308;2024-03-06T04:10:52;1.35;;;0.60;;
81382;SDS011;70834;37.534;-122.308;2024-03-06T04:13:14;5.30;;;0.90;;
81382;SDS011;70834;37.534;-122.308;2024-03-06T04:15:36;5.80;;;0.85;;
81382;SDS011;70834;37.534;-122.308;2024-03-06T04:17:58;1.58;;;0.68;;
81382;SDS011;70834;37.534;-122.308;2024-03-06T04:20:19;3.90;;;0.70;;
81382;SDS011;70834;37.534;-122.308;2024-03-06T04:22:41;2.13;;;0.70;;
81382;SDS011;70834;37.534;-122.308;2024-03-06T04:25:02;2.63;;;0.98;;
81382;SDS011;70834;37.534;-122.308;2024-03-06T04:27:25;1.30;;;0.75;;
81382;SDS011;70834;37.534;-122.308;2024-03-06T04:29:46;4.50;;;0.65;;
81382;SDS011;70834;37.534;-122.308;2024-03-06T04:32:08;4.60;;;0.80;;
81382;SDS011;70834;37.534;-122.308;2024-03-06T04:34:29;3.92;;;0.90;;
81382;SDS011;70834;37.534;-122.308;2024-03-06T04:36:51;2.78;;;0.80;;
81382;SDS011;70834;37.534;-122.308;2024-03-06T04:39:12;5.75;;;1.05;;
81382;SDS011;70834;37.534;-122.308;2024-03-06T04:41:33;2.55;;;0.88;;
81382;SDS011;70834;37.534;-122.308;2024-03-06T04:43:55;2.58;;;1.08;;
81382;SDS011;70834;37.534;-122.308;2024-03-06T04:46:18;3.58;;;1.15;;
81382;SDS011;70834;37.534;-122.308;2024-03-06T04:48:40;3.20;;;1.70;;
81382;SDS011;70834;37.534;-122.308;2024-03-06T04:51:01;4.63;;;1.75;;
81382;SDS011;70834;37.534;-122.308;2024-03-06T04:53:22;4.38;;;1.85;;
81382;SDS011;70834;37.534;-122.308;2024-03-06T04:55:44;2.60;;;0.80;;
81382;SDS011;70834;37.534;-122.308;2024-03-06T04:58:05;3.20;;;0.90;;
81382;SDS011;70834;37.534;-122.308;2024-03-06T05:00:27;2.38;;;0.90;;
81382;SDS011;70834;37.534;-122.308;2024-03-06T05:02:49;1.60;;;0.70;;
81382;SDS011;70834;37.534;-122.308;2024-03-06T05:05:11;2.65;;;0.82;;
81382;SDS011;70834;37.534;-122.308;2024-03-06T05:07:33;4.65;;;0.90;;
81382;SDS011;70834;37.534;-122.308;2024-03-06T05:09:54;2.60;;;0.80;;
81382;SDS011;70834;37.534;-122.308;2024-03-06T05:12:17;3.63;;;1.00;;
81382;SDS011;70834;37.534;-122.308;2024-03-06T05:14:38;2.25;;;1.15;;
81382;SDS011;70834;37.534;-122.308;2024-03-06T05:17:00;2.28;;;0.75;;
81382;SDS011;70834;37.534;-122.308;2024-03-06T05:19:21;2.42;;;1.00;;
81382;SDS011;70834;37.534;-122.308;2024-03-06T05:21:43;3.70;;;1.17;;
81382;SDS011;70834;37.534;-122.308;2024-03-06T05:24:04;3.63;;;0.90;;
81382;SDS011;70834;37.534;-122.308;2024-03-06T05:26:26;4.53;;;1.17;;
81382;SDS011;70834;37.534;-122.308;2024-03-06T05:28:47;3.03;;;1.92;;
81382;SDS011;70834;37.534;-122.308;2024-03-06T05:31:18;4.18;;;1.15;;
81382;SDS011;70834;37.534;-122.308;2024-03-06T05:33:40;3.30;;;0.80;;
81382;SDS011;70834;37.534;-122.308;2024-03-06T05:36:01;3.10;;;1.00;;
81382;SDS011;70834;37.534;-122.308;2024-03-06T05:38:23;2.47;;;0.80;;
81382;SDS011;70834;37.534;-122.308;2024-03-06T05:40:44;2.15;;;0.90;;
81382;SDS011;70834;37.534;-122.308;2024-03-06T05:43:06;3.40;;;0.75;;
81382;SDS011;70834;37.534;-122.308;2024-03-06T05:45:27;6.30;;;1.00;;
81382;SDS011;70834;37.534;-122.308;2024-03-06T05:47:49;3.80;;;1.60;;
81382;SDS011;70834;37.534;-122.308;2024-03-06T05:50:10;5.43;;;1.08;;
81382;SDS011;70834;37.534;-122.308;2024-03-06T05:52:32;4.35;;;0.90;;
81382;SDS011;70834;37.534;-122.308;2024-03-06T05:54:56;2.78;;;0.80;;
81382;SDS011;70834;37.534;-122.308;2024-03-06T05:57:18;3.35;;;0.90;;
81382;SDS011;70834;37.534;-122.308;2024-03-06T05:59:39;3.40;;;1.00;;
81382;SDS011;70834;37.534;-122.308;2024-03-06T06:02:00;6.53;;;1.13;;
81382;SDS011;70834;37.534;-122.308;2024-03-06T06:04:24;4.25;;;1.25;;
81382;SDS011;70834;37.534;-122.308;2024-03-06T06:06:46;7.90;;;1.25;;
81382;SDS011;70834;37.534;-122.308;2024-03-06T06:09:07;5.95;;;1.20;;
81382;SDS011;70834;37.534;-122.308;2024-03-06T06:11:35;3.50;;;1.08;;
81382;SDS011;70834;37.534;-122.308;2024-03-06T06:13:57;3.40;;;0.90;;
81382;SDS011;70834;37.534;-122.308;2024-03-06T06:16:18;6.25;;;1.00;;
81382;SDS011;70834;37.534;-122.308;2024-03-06T06:18:40;4.25;;;0.98;;
81382;SDS011;70834;37.534;-122.308;2024-03-06T06:21:02;3.88;;;1.27;;
81382;SDS011;70834;37.534;-122.308;2024-03-06T06:23:27;3.22;;;1.13;;
81382;SDS011;70834;37.534;-122.308;2024-03-06T06:25:48;2.38;;;1.08;;
81382;SDS011;70834;37.534;-122.308;2024-03-06T06:28:10;3.92;;;1.10;;
81382;SDS011;70834;37.534;-122.308;2024-03-06T06:30:31;1.83;;;0.90;;
81382;SDS011;70834;37.534;-122.308;2024-03-06T06:32:53;3.92;;;0.88;;
81382;SDS011;70834;37.534;-122.308;2024-03-06T06:35:14;3.33;;;1.30;;
81382;SDS011;70834;37.534;-122.308;2024-03-06T06:37:36;5.40;;;1.10;;
81382;SDS011;70834;37.534;-122.308;2024-03-06T06:39:58;2.17;;;1.05;;
81382;SDS011;70834;37.534;-122.308;2024-03-06T06:42:19;5.07;;;1.00;;
81382;SDS011;70834;37.534;-122.308;2024-03-06T06:44:41;2.03;;;1.30;;
81382;SDS011;70834;37.534;-122.308;2024-03-06T06:47:02;2.75;;;1.10;;
81382;SDS011;70834;37.534;-122.308;2024-03-06T06:49:24;3.13;;;1.10;;
81382;SDS011;70834;37.534;-122.308;2024-03-06T06:51:45;5.35;;;1.20;;
81382;SDS011;70834;37.534;-122.308;2024-03-06T06:54:06;4.18;;;1.10;;
81382;SDS011;70834;37.534;-122.308;2024-03-06T06:56:28;3.80;;;1.10;;
81382;SDS011;70834;37.534;-122.308;2024-03-06T06:58:50;7.45;;;1.35;;
81382;SDS011;70834;37.534;-122.308;2024-03-06T07:01:11;4.68;;;0.98;;
81382;SDS011;70834;37.534;-122.308;2024-03-06T07:03:32;2.05;;;0.85;;
81382;SDS011;70834;37.534;-122.308;2024-03-06T07:05:54;1.88;;;0.60;;
81382;SDS011;70834;37.534;-122.308;2024-03-06T07:08:16;2.53;;;0.77;;
81382;SDS011;70834;37.534;-122.308;2024-03-06T07:10:37;3.38;;;0.93;;
81382;SDS011;70834;37.534;-122.308;2024-03-06T07:12:58;3.20;;;0.70;;
81382;SDS011;70834;37.534;-122.308;2024-03-06T07:15:20;2.45;;;0.80;;
81382;SDS011;70834;37.534;-122.308;2024-03-06T07:17:41;3.80;;;0.88;;
81382;SDS011;70834;37.534;-122.308;2024-03-06T07:20:03;2.95;;;0.90;;
81382;SDS011;70834;37.534;-122.308;2024-03-06T07:22:26;2.25;;;0.82;;
81382;SDS011;70834;37.534;-122.308;2024-03-06T07:24:48;4.07;;;1.20;;
81382;SDS011;70834;37.534;-122.308;2024-03-06T07:27:09;1.27;;;0.52;;
81382;SDS011;70834;37.534;-122.308;2024-03-06T07:29:31;4.07;;;1.27;;
81382;SDS011;70834;37.534;-122.308;2024-03-06T07:31:52;1.95;;;1.00;;
81382;SDS011;70834;37.534;-122.308;2024-03-06T07:34:16;4.18;;;1.02;;
81382;SDS011;70834;37.534;-122.308;2024-03-06T07:36:38;4.60;;;1.30;;
81382;SDS011;70834;37.534;-122.308;2024-03-06T07:38:59;1.02;;;0.63;;
81382;SDS011;70834;37.534;-122.308;2024-03-06T07:41:21;4.18;;;0.80;;
81382;SDS011;70834;37.534;-122.308;2024-03-06T07:43:43;2.40;;;0.98;;
81382;SDS011;70834;37.534;-122.308;2024-03-06T07:46:04;4.88;;;0.90;;
81382;SDS011;70834;37.534;-122.308;2024-03-06T07:48:30;4.72;;;1.00;;
81382;SDS011;70834;37.534;-122.308;2024-03-06T07:50:51;2.35;;;0.90;;
81382;SDS011;70834;37.534;-122.308;2024-03-06T07:53:13;3.97;;;1.10;;
81382;SDS011;70834;37.534;-122.308;2024-03-06T07:55:34;1.15;;;0.80;;
81382;SDS011;70834;37.534;-122.308;2024-03-06T07:57:56;2.92;;;1.15;;
81382;SDS011;70834;37.534;-122.308;2024-03-06T08:00:17;2.67;;;0.82;;
81382;SDS011;70834;37.534;-122.308;2024-03-06T08:02:40;3.95;;;1.30;;
81382;SDS011;70834;37.534;-122.308;2024-03-06T08:05:11;4.20;;;1.25;;
81382;SDS011;70834;37.534;-122.308;2024-03-06T08:07:33;2.25;;;0.90;;
81382;SDS011;70834;37.534;-122.308;2024-03-06T08:09:54;4.88;;;1.00;;
81382;SDS011;70834;37.534;-122.308;2024-03-06T08:12:16;2.63;;;1.10;;
81382;SDS011;70834;37.534;-122.308;2024-03-06T08:14:37;1.95;;;0.93;;
81382;SDS011;70834;37.534;-122.308;2024-03-06T08:16:58;2.95;;;1.30;;
81382;SDS011;70834;37.534;-122.308;2024-03-06T08:19:20;2.63;;;0.90;;
81382;SDS011;70834;37.534;-122.308;2024-03-06T08:21:41;4.32;;;1.25;;
81382;SDS011;70834;37.534;-122.308;2024-03-06T08:24:03;4.30;;;0.80;;
81382;SDS011;70834;37.534;-122.308;2024-03-06T08:26:24;5.18;;;0.90;;
81382;SDS011;70834;37.534;-122.308;2024-03-06T08:28:45;3.58;;;0.95;;
81382;SDS011;70834;37.534;-122.308;2024-03-06T08:31:07;5.22;;;1.00;;
81382;SDS011;70834;37.534;-122.308;2024-03-06T08:33:28;6.10;;;1.42;;
81382;SDS011;70834;37.534;-122.308;2024-03-06T08:35:50;2.25;;;1.58;;
81382;SDS011;70834;37.534;-122.308;2024-03-06T08:38:11;2.60;;;0.90;;
81382;SDS011;70834;37.534;-122.308;2024-03-06T08:40:33;3.67;;;0.80;;
81382;SDS011;70834;37.534;-122.308;2024-03-06T08:42:55;3.20;;;1.08;;
81382;SDS011;70834;37.534;-122.308;2024-03-06T08:45:16;2.10;;;0.80;;
81382;SDS011;70834;37.534;-122.308;2024-03-06T08:47:38;2.53;;;0.90;;
81382;SDS011;70834;37.534;-122.308;2024-03-06T08:50:00;1.92;;;0.80;;
81382;SDS011;70834;37.534;-122.308;2024-03-06T08:52:22;2.45;;;0.85;;
81382;SDS011;70834;37.534;-122.308;2024-03-06T08:54:43;1.95;;;0.90;;
81382;SDS011;70834;37.534;-122.308;2024-03-06T08:57:05;3.00;;;1.13;;
81382;SDS011;70834;37.534;-122.308;2024-03-06T08:59:26;2.13;;;0.73;;
81382;SDS011;70834;37.534;-122.308;2024-03-06T09:01:47;3.03;;;1.40;;
81382;SDS011;70834;37.534;-122.308;2024-03-06T09:04:09;5.18;;;1.55;;
81382;SDS011;70834;37.534;-122.308;2024-03-06T09:06:30;6.03;;;1.15;;
81382;SDS011;70834;37.534;-122.308;2024-03-06T09:08:51;2.03;;;0.90;;
81382;SDS011;70834;37.534;-122.308;2024-03-06T09:11:13;7.88;;;1.08;;
81382;SDS011;70834;37.534;-122.308;2024-03-06T09:13:34;2.72;;;0.70;;
81382;SDS011;70834;37.534;-122.308;2024-03-06T09:15:57;1.10;;;0.90;;
81382;SDS011;70834;37.534;-122.308;2024-03-06T09:18:19;1.23;;;0.60;;
81382;SDS011;70834;37.534;-122.308;2024-03-06T09:20:40;2.47;;;0.90;;
81382;SDS011;70834;37.534;-122.308;2024-03-06T09:23:01;4.13;;;0.95;;
81382;SDS011;70834;37.534;-122.308;2024-03-06T09:25:23;3.45;;;0.88;;
81382;SDS011;70834;37.534;-122.308;2024-03-06T09:27:44;1.75;;;0.82;;
81382;SDS011;70834;37.534;-122.308;2024-03-06T09:30:06;5.45;;;1.25;;
81382;SDS011;70834;37.534;-122.308;2024-03-06T09:32:29;1.63;;;0.77;;
81382;SDS011;70834;37.534;-122.308;2024-03-06T09:34:50;2.90;;;0.65;;
81382;SDS011;70834;37.534;-122.308;2024-03-06T09:37:12;3.13;;;0.70;;
81382;SDS011;70834;37.534;-122.308;2024-03-06T09:39:34;3.30;;;0.80;;
81382;SDS011;70834;37.534;-122.308;2024-03-06T09:41:56;2.67;;;0.80;;
81382;SDS011;70834;37.534;-122.308;2024-03-06T09:44:18;2.47;;;1.25;;
81382;SDS011;70834;37.534;-122.308;2024-03-06T09:46:42;1.90;;;0.80;;
81382;SDS011;70834;37.534;-122.308;2024-03-06T09:49:06;2.55;;;0.60;;
81382;SDS011;70834;37.534;-122.308;2024-03-06T09:51:30;6.10;;;1.10;;
81382;SDS011;70834;37.534;-122.308;2024-03-06T09:53:52;4.05;;;0.73;;
81382;SDS011;70834;37.534;-122.308;2024-03-06T09:56:14;3.00;;;0.80;;
81382;SDS011;70834;37.534;-122.308;2024-03-06T09:58:36;3.03;;;0.52;;
81382;SDS011;70834;37.534;-122.308;2024-03-06T10:01:01;0.85;;;0.50;;
81382;SDS011;70834;37.534;-122.308;2024-03-06T10:03:24;3.25;;;0.70;;
81382;SDS011;70834;37.534;-122.308;2024-03-06T10:06:05;3.38;;;0.60;;
81382;SDS011;70834;37.534;-122.308;2024-03-06T10:08:27;2.83;;;0.50;;
81382;SDS011;70834;37.534;-122.308;2024-03-06T10:10:49;1.00;;;0.60;;
81382;SDS011;70834;37.534;-122.308;2024-03-06T10:13:11;1.92;;;0.80;;
81382;SDS011;70834;37.534;-122.308;2024-03-06T10:15:32;0.65;;;0.40;;
81382;SDS011;70834;37.534;-122.308;2024-03-06T10:18:15;1.15;;;0.43;;
81382;SDS011;70834;37.534;-122.308;2024-03-06T10:20:38;1.70;;;0.60;;
81382;SDS011;70834;37.534;-122.308;2024-03-06T10:23:00;0.55;;;0.40;;
81382;SDS011;70834;37.534;-122.308;2024-03-06T10:25:21;0.93;;;0.60;;
81382;SDS011;70834;37.534;-122.308;2024-03-06T10:27:44;1.50;;;0.52;;
81382;SDS011;70834;37.534;-122.308;2024-03-06T10:30:05;3.60;;;0.52;;
81382;SDS011;70834;37.534;-122.308;2024-03-06T10:32:31;1.27;;;0.40;;
81382;SDS011;70834;37.534;-122.308;2024-03-06T10:34:52;3.47;;;0.68;;
81382;SDS011;70834;37.534;-122.308;2024-03-06T10:37:14;1.70;;;0.40;;
81382;SDS011;70834;37.534;-122.308;2024-03-06T10:39:35;4.93;;;0.88;;
81382;SDS011;70834;37.534;-122.308;2024-03-06T10:42:04;1.73;;;0.57;;
81382;SDS011;70834;37.534;-122.308;2024-03-06T10:44:28;2.80;;;0.50;;
81382;SDS011;70834;37.534;-122.308;2024-03-06T10:47:00;3.78;;;0.45;;
81382;SDS011;70834;37.534;-122.308;2024-03-06T10:49:23;1.70;;;0.45;;
81382;SDS011;70834;37.534;-122.308;2024-03-06T10:51:48;1.50;;;0.50;;
81382;SDS011;70834;37.534;-122.308;2024-03-06T10:54:11;2.83;;;0.60;;
81382;SDS011;70834;37.534;-122.308;2024-03-06T10:56:35;2.05;;;0.57;;
81382;SDS011;70834;37.534;-122.308;2024-03-06T10:58:59;1.63;;;0.50;;
81382;SDS011;70834;37.534;-122.308;2024-03-06T11:01:22;2.53;;;0.60;;
81382;SDS011;70834;37.534;-122.308;2024-03-06T11:03:44;1.17;;;0.43;;
81382;SDS011;70834;37.534;-122.308;2024-03-06T11:06:08;1.58;;;0.60;;
81382;SDS011;70834;37.534;-122.308;2024-03-06T11:08:29;2.22;;;0.63;;
81382;SDS011;70834;37.534;-122.308;2024-03-06T11:10:53;0.73;;;0.50;;
81382;SDS011;70834;37.534;-122.308;2024-03-06T11:13:34;1.80;;;0.77;;
81382;SDS011;70834;37.534;-122.308;2024-03-06T11:15:59;0.50;;;0.40;;
81382;SDS011;70834;37.534;-122.308;2024-03-06T11:20:49;2.28;;;0.60;;
81382;SDS011;70834;37.534;-122.308;2024-03-06T11:23:11;4.10;;;0.52;;
81382;SDS011;70834;37.534;-122.308;2024-03-06T11:28:22;3.53;;;0.82;;
81382;SDS011;70834;37.534;-122.308;2024-03-06T11:31:05;2.58;;;0.85;;
81382;SDS011;70834;37.534;-122.308;2024-03-06T11:38:41;3.13;;;0.70;;
81382;SDS011;70834;37.534;-122.308;2024-03-06T11:41:04;3.75;;;0.68;;
81382;SDS011;70834;37.534;-122.308;2024-03-06T11:43:29;0.63;;;0.60;;
81382;SDS011;70834;37.534;-122.308;2024-03-06T11:45:51;3.55;;;0.65;;
81382;SDS011;70834;37.534;-122.308;2024-03-06T11:48:14;2.40;;;0.40;;
81382;SDS011;70834;37.534;-122.308;2024-03-06T11:50:41;2.53;;;0.70;;
81382;SDS011;70834;37.534;-122.308;2024-03-06T11:53:03;2.40;;;1.10;;
81382;SDS011;70834;37.534;-122.308;2024-03-06T11:55:26;1.45;;;0.70;;
81382;SDS011;70834;37.534;-122.308;2024-03-06T11:57:47;2.30;;;0.60;;
81382;SDS011;70834;37.534;-122.308;2024-03-06T12:00:09;2.53;;;0.65;;
81382;SDS011;70834;37.534;-122.308;2024-03-06T12:02:32;3.85;;;0.70;;
81382;SDS011;70834;37.534;-122.308;2024-03-06T12:04:54;1.45;;;0.47;;
81382;SDS011;70834;37.534;-122.308;2024-03-06T12:07:15;2.95;;;0.68;;
81382;SDS011;70834;37.534;-122.308;2024-03-06T12:09:38;2.67;;;0.50;;
81382;SDS011;70834;37.534;-122.308;2024-03-06T12:12:00;1.15;;;0.60;;
81382;SDS011;70834;37.534;-122.308;2024-03-06T12:14:24;2.25;;;0.93;;
81382;SDS011;70834;37.534;-122.308;2024-03-06T12:16:58;5.00;;;0.70;;
81382;SDS011;70834;37.534;-122.308;2024-03-06T12:19:27;1.88;;;0.85;;
81382;SDS011;70834;37.534;-122.308;2024-03-06T12:21:52;2.28;;;0.75;;
81382;SDS011;70834;37.534;-122.308;2024-03-06T12:24:15;2.47;;;0.70;;
81382;SDS011;70834;37.534;-122.308;2024-03-06T12:26:40;1.33;;;0.70;;
81382;SDS011;70834;37.534;-122.308;2024-03-06T12:29:08;3.53;;;1.00;;
81382;SDS011;70834;37.534;-122.308;2024-03-06T12:31:31;2.60;;;0.90;;
81382;SDS011;70834;37.534;-122.308;2024-03-06T12:33:57;1.77;;;0.70;;
81382;SDS011;70834;37.534;-122.308;2024-03-06T12:36:24;3.53;;;0.80;;
81382;SDS011;70834;37.534;-122.308;2024-03-06T12:38:53;4.95;;;0.80;;
81382;SDS011;70834;37.534;-122.308;2024-03-06T12:41:15;2.35;;;0.85;;
81382;SDS011;70834;37.534;-122.308;2024-03-06T12:43:37;4.38;;;0.98;;
81382;SDS011;70834;37.534;-122.308;2024-03-06T12:45:58;1.83;;;1.35;;
81382;SDS011;70834;37.534;-122.308;2024-03-06T12:48:20;1.88;;;0.95;;
81382;SDS011;70834;37.534;-122.308;2024-03-06T12:50:42;1.42;;;0.82;;
81382;SDS011;70834;37.534;-122.308;2024-03-06T12:53:03;2.03;;;0.75;;
81382;SDS011;70834;37.534;-122.308;2024-03-06T12:55:25;3.03;;;1.00;;
81382;SDS011;70834;37.534;-122.308;2024-03-06T12:57:46;2.78;;;0.88;;
81382;SDS011;70834;37.534;-122.308;2024-03-06T13:00:10;3.58;;;0.85;;
81382;SDS011;70834;37.534;-122.308;2024-03-06T13:02:35;1.13;;;0.65;;
81382;SDS011;70834;37.534;-122.308;2024-03-06T13:04:57;2.30;;;0.98;;
81382;SDS011;70834;37.534;-122.308;2024-03-06T13:07:18;1.77;;;0.85;;
81382;SDS011;70834;37.534;-122.308;2024-03-06T13:09:40;1.67;;;1.00;;
81382;SDS011;70834;37.534;-122.308;2024-03-06T13:12:04;1.20;;;0.73;;
81382;SDS011;70834;37.534;-122.308;2024-03-06T13:14:26;2.05;;;1.00;;
81382;SDS011;70834;37.534;-122.308;2024-03-06T13:16:47;2.72;;;1.23;;
81382;SDS011;70834;37.534;-122.308;2024-03-06T13:19:09;1.73;;;0.75;;
81382;SDS011;70834;37.534;-122.308;2024-03-06T13:21:31;2.03;;;1.13;;
81382;SDS011;70834;37.534;-122.308;2024-03-06T13:23:54;2.85;;;0.90;;
81382;SDS011;70834;37.534;-122.308;2024-03-06T13:26:16;2.78;;;0.90;;
81382;SDS011;70834;37.534;-122.308;2024-03-06T13:28:38;6.43;;;0.93;;
81382;SDS011;70834;37.534;-122.308;2024-03-06T13:31:00;4.50;;;0.93;;
81382;SDS011;70834;37.534;-122.308;2024-03-06T13:33:21;3.80;;;0.90;;
81382;SDS011;70834;37.534;-122.308;2024-03-06T13:35:44;1.77;;;0.73;;
81382;SDS011;70834;37.534;-122.308;2024-03-06T13:38:05;2.92;;;1.20;;
81382;SDS011;70834;37.534;-122.308;2024-03-06T13:40:26;2.50;;;1.10;;
81382;SDS011;70834;37.534;-122.308;2024-03-06T13:42:48;4.97;;;1.83;;
81382;SDS011;70834;37.534;-122.308;2024-03-06T13:45:10;1.88;;;0.90;;
81382;SDS011;70834;37.534;-122.308;2024-03-06T13:47:34;3.45;;;1.08;;
81382;SDS011;70834;37.534;-122.308;2024-03-06T13:49:58;4.05;;;1.10;;